createdAt,value
2019-05-13T00:01:14.315Z,37.60
2019-05-13T00:04:05.485Z,37.00
2019-05-13T00:06:57.911Z,37.70
2019-05-13T00:09:50.124Z,37.50
2019-05-13T00:12:44.543Z,37.00
2019-05-13T00:15:36.215Z,37.00
2019-05-13T00:18:28.626Z,37.50
2019-05-13T00:21:23.126Z,37.50
2019-05-13T00:24:14.840Z,37.00
2019-05-13T00:27:07.199Z,36.90
2019-05-13T00:29:59.595Z,36.90
2019-05-13T00:32:51.965Z,36.80
2019-05-13T00:35:44.459Z,36.90
2019-05-13T00:38:36.881Z,37.50
2019-05-13T00:41:29.509Z,37.20
2019-05-13T00:44:21.886Z,37.20
2019-05-13T00:47:14.291Z,36.70
2019-05-13T00:50:06.670Z,36.90
2019-05-13T00:53:00.071Z,36.80
2019-05-13T00:55:53.633Z,37.40
2019-05-13T00:58:46.360Z,36.80
2019-05-13T01:01:38.695Z,36.80
2019-05-13T01:04:30.699Z,36.80
2019-05-13T01:07:28.580Z,36.80
2019-05-13T01:10:16.959Z,37.30
2019-05-13T01:13:09.602Z,36.80
2019-05-13T01:16:03.678Z,36.80
2019-05-13T01:18:55.769Z,36.80
2019-05-13T01:21:47.816Z,36.60
2019-05-13T01:24:40.157Z,36.70
2019-05-13T01:27:33.544Z,36.80
2019-05-13T01:30:25.905Z,37.30
2019-05-13T01:33:18.930Z,37.20
2019-05-13T01:36:13.252Z,37.10
2019-05-13T01:39:06.783Z,37.10
2019-05-13T01:41:59.053Z,36.50
2019-05-13T01:44:54.035Z,37.10
2019-05-13T01:47:46.441Z,36.60
2019-05-13T01:50:38.791Z,37.10
2019-05-13T01:53:33.440Z,37.10
2019-05-13T01:56:26.554Z,37.20
2019-05-13T01:59:18.736Z,37.10
2019-05-13T02:02:11.001Z,36.40
2019-05-13T02:05:03.979Z,36.50
2019-05-13T02:08:00.382Z,37.10
2019-05-13T02:10:59.734Z,37.10
2019-05-13T02:13:53.991Z,37.10
2019-05-13T02:16:45.592Z,36.60
2019-05-13T02:19:37.947Z,36.60
2019-05-13T02:22:30.289Z,37.20
2019-05-13T02:25:23.735Z,36.50
2019-05-13T02:28:16.176Z,36.00
2019-05-13T02:31:08.507Z,35.80
2019-05-13T02:34:02.551Z,35.50
2019-05-13T02:36:54.438Z,35.10
2019-05-13T02:39:46.764Z,34.80
2019-05-13T02:42:39.332Z,34.20
2019-05-13T02:45:33.304Z,33.90
2019-05-13T02:48:26.897Z,34.60
2019-05-13T02:51:22.753Z,33.70
2019-05-13T02:54:13.539Z,33.60
2019-05-13T02:57:06.734Z,33.50
2019-05-13T03:00:03.768Z,32.80
2019-05-13T03:02:54.090Z,33.20
2019-05-13T03:05:48.404Z,33.20
2019-05-13T03:08:49.619Z,33.00
2019-05-13T03:11:35.383Z,32.30
2019-05-13T03:14:27.806Z,32.60
2019-05-13T03:17:25.675Z,32.40
2019-05-13T03:20:23.040Z,32.40
2019-05-13T03:23:16.154Z,32.10
2019-05-13T03:26:08.087Z,31.40
2019-05-13T03:29:02.887Z,31.30
2019-05-13T03:31:56.522Z,31.00
2019-05-13T03:34:55.181Z,31.50
2019-05-13T03:37:44.321Z,30.90
2019-05-13T03:40:45.384Z,30.80
2019-05-13T03:43:42.996Z,30.70
2019-05-13T03:46:36.844Z,31.10
2019-05-13T03:49:32.673Z,30.20
2019-05-13T03:52:25.811Z,30.70
2019-05-13T03:55:23.194Z,30.50
2019-05-13T03:58:15.127Z,30.50
2019-05-13T04:01:07.888Z,30.00
2019-05-13T04:04:03.314Z,29.90
2019-05-13T04:06:55.068Z,29.80
2019-05-13T04:09:47.489Z,30.30
2019-05-13T04:12:42.371Z,29.90
2019-05-13T04:15:32.941Z,30.50
2019-05-13T04:18:25.206Z,30.90
2019-05-13T04:21:17.644Z,30.30
2019-05-13T04:24:12.218Z,30.40
2019-05-13T04:27:04.028Z,30.70
2019-05-13T04:29:58.677Z,30.90
2019-05-13T04:32:53.691Z,31.10
2019-05-13T04:35:47.072Z,31.70
2019-05-13T04:38:39.225Z,30.40
2019-05-13T04:41:33.242Z,30.50
2019-05-13T04:44:25.544Z,30.20
2019-05-13T04:47:22.675Z,29.60
2019-05-13T04:50:13.183Z,30.60
2019-05-13T04:53:06.048Z,30.00
2019-05-13T04:55:58.631Z,30.60
2019-05-13T04:58:52.708Z,43.10
2019-05-13T05:02:04.824Z,36.80
2019-05-13T05:05:06.525Z,33.80
2019-05-13T05:08:26.375Z,32.20
2019-05-13T05:11:45.378Z,31.20
2019-05-13T05:15:12.108Z,30.60
2019-05-13T05:18:28.376Z,30.30
2019-05-13T05:21:26.430Z,30.20
2019-05-13T05:28:06.327Z,30.30
2019-05-13T05:31:18.939Z,29.90
2019-05-13T05:34:22.028Z,30.50
2019-05-13T05:37:38.732Z,30.60
2019-05-13T05:40:42.592Z,30.70
2019-05-13T05:43:44.857Z,30.80
2019-05-13T05:46:37.605Z,30.50
2019-05-13T05:49:37.479Z,30.80
2019-05-13T05:52:42.584Z,30.10
2019-05-13T05:55:44.340Z,29.90
2019-05-13T05:58:46.281Z,29.60
2019-05-13T06:01:41.552Z,29.50
2019-05-13T06:04:43.440Z,29.50
2019-05-13T06:07:48.002Z,29.50
2019-05-13T06:10:51.339Z,29.50
2019-05-13T06:13:54.401Z,29.60
2019-05-13T06:16:48.295Z,29.60
2019-05-13T06:19:43.941Z,29.70
2019-05-13T06:22:36.534Z,29.90
2019-05-13T06:25:33.689Z,29.80
2019-05-13T06:28:25.356Z,29.80
2019-05-13T06:31:21.380Z,29.90
2019-05-13T06:34:13.291Z,30.00
2019-05-13T06:37:05.999Z,30.00
2019-05-13T06:40:02.208Z,30.00
2019-05-13T06:42:56.931Z,30.00
2019-05-13T06:45:51.386Z,30.10
2019-05-13T06:48:47.378Z,29.30
2019-05-13T06:51:41.766Z,29.80
2019-05-13T06:54:35.002Z,30.00
2019-05-13T06:57:29.204Z,30.10
2019-05-13T07:00:24.449Z,30.10
2019-05-13T07:03:22.479Z,30.10
2019-05-13T07:06:17.745Z,30.00
2019-05-13T07:09:13.756Z,30.00
2019-05-13T07:12:11.201Z,30.10
2019-05-13T07:15:04.534Z,30.20
2019-05-13T07:17:57.987Z,30.20
2019-05-13T07:20:53.153Z,30.20
2019-05-13T07:23:46.848Z,30.30
2019-05-13T07:26:41.925Z,30.30
2019-05-13T07:29:34.059Z,30.30
2019-05-13T07:32:26.540Z,30.40
2019-05-13T07:35:22.949Z,30.30
2019-05-13T07:38:22.194Z,30.30
2019-05-13T07:41:34.733Z,31.00
2019-05-13T07:44:13.386Z,31.90
2019-05-13T07:47:08.387Z,33.00
2019-05-13T07:50:02.510Z,33.80
2019-05-13T07:52:57.942Z,34.50
2019-05-13T07:55:52.494Z,35.50
2019-05-13T07:58:46.424Z,36.50
2019-05-13T08:01:41.763Z,37.00
2019-05-13T08:04:35.208Z,37.90
2019-05-13T08:07:31.430Z,38.90
2019-05-13T08:10:24.420Z,40.10
2019-05-13T08:13:16.705Z,39.50
2019-05-13T08:16:12.205Z,39.30
2019-05-13T08:19:03.086Z,39.60
2019-05-13T08:21:56.091Z,39.90
2019-05-13T08:24:51.080Z,40.20
2019-05-13T08:27:42.697Z,40.50
2019-05-13T08:30:34.655Z,40.70
2019-05-13T08:33:27.869Z,41.10
2019-05-13T08:36:23.303Z,41.20
2019-05-13T08:39:16.589Z,41.40
2019-05-13T08:42:16.008Z,41.40
2019-05-13T08:45:06.033Z,41.50
2019-05-13T08:47:58.526Z,41.50
2019-05-13T08:50:52.186Z,41.60
2019-05-13T08:53:44.527Z,41.50
2019-05-13T08:56:37.339Z,41.70
2019-05-13T08:59:31.740Z,42.00
2019-05-13T09:02:24.773Z,42.20
2019-05-13T09:05:17.824Z,42.40
2019-05-13T09:08:11.512Z,41.50
2019-05-13T09:11:05.128Z,41.10
2019-05-13T09:13:57.780Z,40.70
2019-05-13T09:16:52.653Z,40.30
2019-05-13T09:19:45.465Z,39.90
2019-05-13T09:22:41.105Z,39.20
2019-05-13T09:25:32.981Z,38.50
2019-05-13T09:28:26.029Z,38.00
2019-05-13T09:31:18.505Z,37.30
2019-05-13T09:34:12.127Z,36.70
2019-05-13T09:37:04.213Z,36.10
2019-05-13T09:40:02.430Z,35.60
2019-05-13T09:42:56.967Z,35.10
2019-05-13T09:45:52.277Z,35.20
2019-05-13T09:48:46.352Z,34.00
2019-05-13T09:51:43.715Z,33.70
2019-05-13T09:54:38.814Z,33.40
2019-05-13T09:57:34.018Z,33.20
2019-05-13T10:00:28.417Z,33.00
2019-05-13T10:03:29.057Z,32.80
2019-05-13T10:06:18.970Z,32.60
2019-05-13T10:09:12.811Z,32.40
2019-05-13T10:12:07.672Z,32.10
2019-05-13T10:15:01.919Z,31.80
2019-05-13T10:17:56.272Z,31.50
2019-05-13T10:21:00.637Z,31.50
2019-05-13T10:23:58.290Z,31.50
2019-05-13T10:26:47.060Z,31.40
2019-05-13T10:29:42.190Z,31.30
2019-05-13T10:32:34.244Z,31.30
2019-05-13T10:35:27.446Z,31.00
2019-05-13T10:41:52.315Z,30.80
2019-05-13T10:44:45.540Z,30.60
2019-05-13T10:47:38.250Z,30.50
2019-05-13T10:50:38.291Z,30.30
2019-05-13T10:53:32.267Z,30.20
2019-05-13T10:56:27.458Z,30.20
2019-05-13T10:59:25.282Z,30.10
2019-05-13T11:02:28.080Z,30.00
2019-05-13T11:05:22.993Z,30.00
2019-05-13T11:08:18.311Z,30.00
2019-05-13T11:11:17.778Z,30.00
2019-05-13T11:14:15.274Z,29.90
2019-05-13T11:17:07.423Z,29.90
2019-05-13T11:20:03.579Z,29.80
2019-05-13T11:23:08.849Z,29.70
2019-05-13T11:26:03.489Z,29.60
2019-05-13T11:28:57.176Z,29.60
2019-05-13T11:31:52.506Z,29.90
2019-05-13T11:34:49.048Z,29.50
2019-05-13T11:37:52.221Z,29.50
2019-05-13T11:40:58.573Z,29.50
2019-05-13T11:44:12.085Z,29.50
2019-05-13T11:46:55.393Z,29.40
2019-05-13T11:49:52.129Z,29.40
2019-05-13T11:52:45.388Z,29.40
2019-05-13T11:55:42.413Z,29.40
2019-05-13T11:58:36.183Z,29.40
2019-05-13T12:01:33.378Z,29.30
2019-05-13T12:04:27.431Z,29.30
2019-05-13T12:07:23.161Z,29.40
2019-05-13T12:10:18.437Z,29.40
2019-05-13T12:13:15.927Z,29.40
2019-05-13T12:16:08.538Z,29.50
2019-05-13T12:19:06.905Z,29.50
2019-05-13T12:22:02.732Z,29.50
2019-05-13T12:25:25.084Z,29.50
2019-05-13T12:28:18.432Z,29.50
2019-05-13T12:31:12.161Z,29.30
2019-05-13T12:34:05.171Z,29.10
2019-05-13T12:37:02.822Z,29.00
2019-05-13T12:39:53.407Z,29.40
2019-05-13T12:42:48.749Z,28.70
2019-05-13T12:45:43.445Z,28.50
2019-05-13T12:48:36.715Z,28.20
2019-05-13T12:51:32.499Z,28.30
2019-05-13T12:54:25.717Z,28.30
2019-05-13T12:57:23.160Z,28.30
2019-05-13T13:00:16.997Z,28.30
2019-05-13T13:03:13.043Z,28.20
2019-05-13T13:06:25.097Z,28.20
2019-05-13T13:08:56.993Z,28.40
